sensor_id;sensor_type;location;lat;lon;timestamp;P1;durP1;ratioP1;P2;durP2;ratioP2
1082;SDS011;530;51.448;7.238;2023-01-24T00:01:41;11.60;;;8.90;;
1082;SDS011;530;51.448;7.238;2023-01-24T00:04:07;12.90;;;9.60;;
1082;SDS011;530;51.448;7.238;2023-01-24T00:06:32;11.57;;;8.80;;
1082;SDS011;530;51.448;7.238;2023-01-24T00:08:58;12.50;;;9.30;;
1082;SDS011;530;51.448;7.238;2023-01-24T00:11:24;14.97;;;9.70;;
1082;SDS011;530;51.448;7.238;2023-01-24T00:13:50;11.83;;;9.13;;
1082;SDS011;530;51.448;7.238;2023-01-24T00:16:19;11.87;;;9.10;;
1082;SDS011;530;51.448;7.238;2023-01-24T00:18:46;11.57;;;8.70;;
1082;SDS011;530;51.448;7.238;2023-01-24T00:21:20;11.90;;;8.50;;
1082;SDS011;530;51.448;7.238;2023-01-24T00:23:48;10.90;;;8.97;;
1082;SDS011;530;51.448;7.238;2023-01-24T00:26:18;10.87;;;8.43;;
1082;SDS011;530;51.448;7.238;2023-01-24T00:28:45;10.23;;;8.13;;
1082;SDS011;530;51.448;7.238;2023-01-24T00:31:11;11.87;;;8.83;;
1082;SDS011;530;51.448;7.238;2023-01-24T00:33:37;10.83;;;8.80;;
1082;SDS011;530;51.448;7.238;2023-01-24T00:36:03;9.00;;;8.07;;
1082;SDS011;530;51.448;7.238;2023-01-24T00:38:29;12.00;;;8.30;;
1082;SDS011;530;51.448;7.238;2023-01-24T00:40:55;9.80;;;8.00;;
1082;SDS011;530;51.448;7.238;2023-01-24T00:43:21;9.97;;;7.70;;
1082;SDS011;530;51.448;7.238;2023-01-24T00:45:47;12.00;;;8.20;;
1082;SDS011;530;51.448;7.238;2023-01-24T00:48:13;9.33;;;7.30;;
1082;SDS011;530;51.448;7.238;2023-01-24T00:50:40;10.63;;;7.90;;
1082;SDS011;530;51.448;7.238;2023-01-24T00:53:05;9.30;;;7.00;;
1082;SDS011;530;51.448;7.238;2023-01-24T00:55:31;9.97;;;7.57;;
1082;SDS011;530;51.448;7.238;2023-01-24T00:57:57;8.70;;;7.30;;
1082;SDS011;530;51.448;7.238;2023-01-24T01:00:23;9.00;;;7.30;;
1082;SDS011;530;51.448;7.238;2023-01-24T01:02:50;10.20;;;6.67;;
1082;SDS011;530;51.448;7.238;2023-01-24T01:05:16;10.43;;;7.27;;
1082;SDS011;530;51.448;7.238;2023-01-24T01:07:42;8.63;;;6.90;;
1082;SDS011;530;51.448;7.238;2023-01-24T01:10:08;9.37;;;6.70;;
1082;SDS011;530;51.448;7.238;2023-01-24T01:12:34;8.43;;;6.80;;
1082;SDS011;530;51.448;7.238;2023-01-24T01:15:00;9.30;;;7.33;;
1082;SDS011;530;51.448;7.238;2023-01-24T01:17:26;10.23;;;7.73;;
1082;SDS011;530;51.448;7.238;2023-01-24T01:19:52;9.40;;;7.67;;
1082;SDS011;530;51.448;7.238;2023-01-24T01:22:18;9.47;;;7.60;;
1082;SDS011;530;51.448;7.238;2023-01-24T01:24:44;8.77;;;7.20;;
1082;SDS011;530;51.448;7.238;2023-01-24T01:27:10;7.60;;;6.80;;
1082;SDS011;530;51.448;7.238;2023-01-24T01:29:36;9.10;;;7.17;;
1082;SDS011;530;51.448;7.238;2023-01-24T01:32:02;9.57;;;6.97;;
1082;SDS011;530;51.448;7.238;2023-01-24T01:34:28;11.07;;;8.30;;
1082;SDS011;530;51.448;7.238;2023-01-24T01:36:53;8.77;;;7.07;;
1082;SDS011;530;51.448;7.238;2023-01-24T01:39:19;9.13;;;7.37;;
1082;SDS011;530;51.448;7.238;2023-01-24T01:41:45;8.47;;;6.47;;
1082;SDS011;530;51.448;7.238;2023-01-24T01:44:18;8.90;;;6.93;;
1082;SDS011;530;51.448;7.238;2023-01-24T01:47:03;8.40;;;6.70;;
1082;SDS011;530;51.448;7.238;2023-01-24T01:50:00;8.80;;;6.70;;
1082;SDS011;530;51.448;7.238;2023-01-24T01:52:29;9.00;;;7.37;;
1082;SDS011;530;51.448;7.238;2023-01-24T01:55:00;9.33;;;6.77;;
1082;SDS011;530;51.448;7.238;2023-01-24T01:57:31;10.10;;;7.50;;
1082;SDS011;530;51.448;7.238;2023-01-24T02:00:00;8.67;;;6.73;;
1082;SDS011;530;51.448;7.238;2023-01-24T02:02:30;8.37;;;6.77;;
1082;SDS011;530;51.448;7.238;2023-01-24T02:04:58;8.73;;;6.37;;
1082;SDS011;530;51.448;7.238;2023-01-24T02:10:01;6.67;;;5.97;;
1082;SDS011;530;51.448;7.238;2023-01-24T02:12:29;7.90;;;6.30;;
1082;SDS011;530;51.448;7.238;2023-01-24T02:14:58;8.73;;;5.90;;
1082;SDS011;530;51.448;7.238;2023-01-24T02:17:47;7.03;;;5.73;;
1082;SDS011;530;51.448;7.238;2023-01-24T02:20:28;7.77;;;6.10;;
1082;SDS011;530;51.448;7.238;2023-01-24T02:25:40;9.17;;;6.13;;
1082;SDS011;530;51.448;7.238;2023-01-24T02:28:26;7.53;;;6.00;;
1082;SDS011;530;51.448;7.238;2023-01-24T02:30:55;7.60;;;6.07;;
1082;SDS011;530;51.448;7.238;2023-01-24T02:33:21;7.93;;;6.60;;
1082;SDS011;530;51.448;7.238;2023-01-24T02:35:47;7.83;;;5.93;;
1082;SDS011;530;51.448;7.238;2023-01-24T02:38:18;7.30;;;5.60;;
1082;SDS011;530;51.448;7.238;2023-01-24T02:40:47;7.90;;;6.00;;
1082;SDS011;530;51.448;7.238;2023-01-24T02:43:18;8.07;;;5.93;;
1082;SDS011;530;51.448;7.238;2023-01-24T02:45:45;7.93;;;6.70;;
1082;SDS011;530;51.448;7.238;2023-01-24T02:48:11;7.00;;;5.93;;
1082;SDS011;530;51.448;7.238;2023-01-24T02:50:37;7.37;;;6.00;;
1082;SDS011;530;51.448;7.238;2023-01-24T02:53:21;7.87;;;6.57;;
1082;SDS011;530;51.448;7.238;2023-01-24T02:55:56;8.80;;;5.87;;
1082;SDS011;530;51.448;7.238;2023-01-24T02:58:42;7.87;;;5.97;;
1082;SDS011;530;51.448;7.238;2023-01-24T03:01:09;8.20;;;5.73;;
1082;SDS011;530;51.448;7.238;2023-01-24T03:03:35;8.90;;;6.70;;
1082;SDS011;530;51.448;7.238;2023-01-24T03:06:01;7.73;;;5.37;;
1082;SDS011;530;51.448;7.238;2023-01-24T03:08:27;8.13;;;6.43;;
1082;SDS011;530;51.448;7.238;2023-01-24T03:10:55;11.23;;;7.40;;
1082;SDS011;530;51.448;7.238;2023-01-24T03:13:21;7.80;;;5.63;;
1082;SDS011;530;51.448;7.238;2023-01-24T03:16:07;8.23;;;5.90;;
1082;SDS011;530;51.448;7.238;2023-01-24T03:18:52;8.00;;;5.50;;
1082;SDS011;530;51.448;7.238;2023-01-24T03:21:36;8.10;;;5.93;;
1082;SDS011;530;51.448;7.238;2023-01-24T03:24:20;7.33;;;5.63;;
1082;SDS011;530;51.448;7.238;2023-01-24T03:27:05;7.60;;;6.33;;
1082;SDS011;530;51.448;7.238;2023-01-24T03:29:50;6.83;;;5.63;;
1082;SDS011;530;51.448;7.238;2023-01-24T03:32:34;7.50;;;5.70;;
1082;SDS011;530;51.448;7.238;2023-01-24T03:35:19;8.90;;;6.63;;
1082;SDS011;530;51.448;7.238;2023-01-24T03:37:45;8.57;;;6.17;;
1082;SDS011;530;51.448;7.238;2023-01-24T03:40:29;8.93;;;6.10;;
1082;SDS011;530;51.448;7.238;2023-01-24T03:42:54;7.97;;;6.50;;
1082;SDS011;530;51.448;7.238;2023-01-24T03:45:24;9.10;;;6.33;;
1082;SDS011;530;51.448;7.238;2023-01-24T03:48:07;6.90;;;6.10;;
1082;SDS011;530;51.448;7.238;2023-01-24T03:50:41;6.20;;;5.37;;
1082;SDS011;530;51.448;7.238;2023-01-24T03:53:26;7.83;;;5.63;;
1082;SDS011;530;51.448;7.238;2023-01-24T03:55:57;8.17;;;5.73;;
1082;SDS011;530;51.448;7.238;2023-01-24T03:58:25;7.07;;;5.60;;
1082;SDS011;530;51.448;7.238;2023-01-24T04:00:52;9.03;;;6.73;;
1082;SDS011;530;51.448;7.238;2023-01-24T04:03:18;7.63;;;6.20;;
1082;SDS011;530;51.448;7.238;2023-01-24T04:05:45;6.27;;;5.40;;
1082;SDS011;530;51.448;7.238;2023-01-24T04:08:12;8.93;;;6.57;;
1082;SDS011;530;51.448;7.238;2023-01-24T04:10:38;8.20;;;6.17;;
1082;SDS011;530;51.448;7.238;2023-01-24T04:13:03;7.63;;;6.67;;
1082;SDS011;530;51.448;7.238;2023-01-24T04:15:30;8.50;;;7.23;;
1082;SDS011;530;51.448;7.238;2023-01-24T04:17:58;9.60;;;6.60;;
1082;SDS011;530;51.448;7.238;2023-01-24T04:20:25;9.57;;;6.70;;
1082;SDS011;530;51.448;7.238;2023-01-24T04:22:52;7.73;;;6.53;;
1082;SDS011;530;51.448;7.238;2023-01-24T04:25:18;8.87;;;6.40;;
1082;SDS011;530;51.448;7.238;2023-01-24T04:27:44;8.30;;;6.23;;
1082;SDS011;530;51.448;7.238;2023-01-24T04:30:10;7.93;;;6.70;;
1082;SDS011;530;51.448;7.238;2023-01-24T04:32:38;9.87;;;6.83;;
1082;SDS011;530;51.448;7.238;2023-01-24T04:35:04;8.90;;;6.57;;
1082;SDS011;530;51.448;7.238;2023-01-24T04:37:31;9.00;;;7.20;;
1082;SDS011;530;51.448;7.238;2023-01-24T04:39:57;8.70;;;7.10;;
1082;SDS011;530;51.448;7.238;2023-01-24T04:42:23;10.43;;;8.00;;
1082;SDS011;530;51.448;7.238;2023-01-24T04:44:48;8.30;;;6.87;;
1082;SDS011;530;51.448;7.238;2023-01-24T04:47:14;9.30;;;6.37;;
1082;SDS011;530;51.448;7.238;2023-01-24T04:49:40;9.20;;;7.37;;
1082;SDS011;530;51.448;7.238;2023-01-24T04:52:08;10.60;;;7.50;;
1082;SDS011;530;51.448;7.238;2023-01-24T04:54:36;8.90;;;6.90;;
1082;SDS011;530;51.448;7.238;2023-01-24T04:57:01;10.70;;;8.50;;
1082;SDS011;530;51.448;7.238;2023-01-24T04:59:27;9.80;;;7.90;;
1082;SDS011;530;51.448;7.238;2023-01-24T05:01:52;10.20;;;7.67;;
1082;SDS011;530;51.448;7.238;2023-01-24T05:04:18;11.23;;;7.93;;
1082;SDS011;530;51.448;7.238;2023-01-24T05:06:43;9.50;;;7.83;;
1082;SDS011;530;51.448;7.238;2023-01-24T05:09:09;10.47;;;7.90;;
1082;SDS011;530;51.448;7.238;2023-01-24T05:11:35;12.77;;;8.40;;
1082;SDS011;530;51.448;7.238;2023-01-24T05:14:01;9.07;;;7.50;;
1082;SDS011;530;51.448;7.238;2023-01-24T05:16:27;11.80;;;8.00;;
1082;SDS011;530;51.448;7.238;2023-01-24T05:18:52;10.47;;;8.23;;
1082;SDS011;530;51.448;7.238;2023-01-24T05:21:18;9.87;;;7.87;;
1082;SDS011;530;51.448;7.238;2023-01-24T05:23:47;10.97;;;8.00;;
1082;SDS011;530;51.448;7.238;2023-01-24T05:26:15;8.87;;;7.00;;
1082;SDS011;530;51.448;7.238;2023-01-24T05:28:41;11.50;;;8.17;;
1082;SDS011;530;51.448;7.238;2023-01-24T05:31:06;10.77;;;7.70;;
1082;SDS011;530;51.448;7.238;2023-01-24T05:33:33;11.00;;;7.90;;
1082;SDS011;530;51.448;7.238;2023-01-24T05:36:01;10.53;;;8.37;;
1082;SDS011;530;51.448;7.238;2023-01-24T05:38:31;11.43;;;8.70;;
1082;SDS011;530;51.448;7.238;2023-01-24T05:41:00;11.77;;;8.40;;
1082;SDS011;530;51.448;7.238;2023-01-24T05:43:27;11.90;;;8.40;;
1082;SDS011;530;51.448;7.238;2023-01-24T05:46:01;12.00;;;9.20;;
1082;SDS011;530;51.448;7.238;2023-01-24T05:48:29;9.70;;;7.63;;
1082;SDS011;530;51.448;7.238;2023-01-24T05:51:05;10.43;;;8.07;;
1082;SDS011;530;51.448;7.238;2023-01-24T05:53:32;10.83;;;8.43;;
1082;SDS011;530;51.448;7.238;2023-01-24T05:56:01;10.33;;;8.17;;
1082;SDS011;530;51.448;7.238;2023-01-24T05:58:30;12.47;;;8.60;;
1082;SDS011;530;51.448;7.238;2023-01-24T06:00:58;11.53;;;8.73;;
1082;SDS011;530;51.448;7.238;2023-01-24T06:03:23;9.87;;;8.47;;
1082;SDS011;530;51.448;7.238;2023-01-24T06:05:50;10.80;;;8.27;;
1082;SDS011;530;51.448;7.238;2023-01-24T06:08:17;11.23;;;9.07;;
1082;SDS011;530;51.448;7.238;2023-01-24T06:10:44;11.93;;;8.13;;
1082;SDS011;530;51.448;7.238;2023-01-24T06:13:10;11.40;;;8.50;;
1082;SDS011;530;51.448;7.238;2023-01-24T06:15:36;11.50;;;8.50;;
1082;SDS011;530;51.448;7.238;2023-01-24T06:18:03;10.40;;;8.70;;
1082;SDS011;530;51.448;7.238;2023-01-24T06:20:29;12.00;;;8.93;;
1082;SDS011;530;51.448;7.238;2023-01-24T06:23:05;12.77;;;10.03;;
1082;SDS011;530;51.448;7.238;2023-01-24T06:25:31;10.70;;;8.60;;
1082;SDS011;530;51.448;7.238;2023-01-24T06:27:58;10.63;;;8.57;;
1082;SDS011;530;51.448;7.238;2023-01-24T06:30:24;10.47;;;7.90;;
1082;SDS011;530;51.448;7.238;2023-01-24T06:38:01;12.13;;;9.47;;
1082;SDS011;530;51.448;7.238;2023-01-24T06:40:27;12.20;;;8.90;;
1082;SDS011;530;51.448;7.238;2023-01-24T06:42:53;11.60;;;9.60;;
1082;SDS011;530;51.448;7.238;2023-01-24T06:45:21;12.03;;;8.33;;
1082;SDS011;530;51.448;7.238;2023-01-24T06:47:47;12.57;;;8.97;;
1082;SDS011;530;51.448;7.238;2023-01-24T06:50:13;11.27;;;9.07;;
1082;SDS011;530;51.448;7.238;2023-01-24T06:52:45;11.00;;;8.00;;
1082;SDS011;530;51.448;7.238;2023-01-24T06:55:11;11.10;;;8.80;;
1082;SDS011;530;51.448;7.238;2023-01-24T06:57:37;12.00;;;9.27;;
1082;SDS011;530;51.448;7.238;2023-01-24T07:00:03;12.40;;;8.63;;
1082;SDS011;530;51.448;7.238;2023-01-24T07:02:30;10.20;;;7.90;;
1082;SDS011;530;51.448;7.238;2023-01-24T07:04:55;10.43;;;8.00;;
1082;SDS011;530;51.448;7.238;2023-01-24T07:07:21;9.57;;;7.30;;
1082;SDS011;530;51.448;7.238;2023-01-24T07:09:46;9.03;;;7.40;;
1082;SDS011;530;51.448;7.238;2023-01-24T07:12:12;9.20;;;7.40;;
1082;SDS011;530;51.448;7.238;2023-01-24T07:14:38;9.70;;;8.07;;
1082;SDS011;530;51.448;7.238;2023-01-24T07:17:03;11.10;;;8.53;;
1082;SDS011;530;51.448;7.238;2023-01-24T07:19:29;12.23;;;8.20;;
1082;SDS011;530;51.448;7.238;2023-01-24T07:21:55;11.50;;;7.93;;
1082;SDS011;530;51.448;7.238;2023-01-24T07:24:23;9.80;;;7.73;;
1082;SDS011;530;51.448;7.238;2023-01-24T07:26:51;9.60;;;7.10;;
1082;SDS011;530;51.448;7.238;2023-01-24T07:29:18;8.80;;;7.57;;
1082;SDS011;530;51.448;7.238;2023-01-24T07:31:44;9.87;;;7.80;;
1082;SDS011;530;51.448;7.238;2023-01-24T07:34:10;9.10;;;7.27;;
1082;SDS011;530;51.448;7.238;2023-01-24T07:36:35;10.67;;;7.10;;
1082;SDS011;530;51.448;7.238;2023-01-24T07:39:01;9.17;;;7.20;;
1082;SDS011;530;51.448;7.238;2023-01-24T07:41:27;7.77;;;6.60;;
1082;SDS011;530;51.448;7.238;2023-01-24T07:43:53;9.20;;;7.30;;
1082;SDS011;530;51.448;7.238;2023-01-24T07:46:20;8.90;;;7.00;;
1082;SDS011;530;51.448;7.238;2023-01-24T07:48:45;9.67;;;7.97;;
1082;SDS011;530;51.448;7.238;2023-01-24T07:51:11;7.17;;;6.23;;
1082;SDS011;530;51.448;7.238;2023-01-24T07:53:37;8.57;;;6.80;;
1082;SDS011;530;51.448;7.238;2023-01-24T07:56:03;7.63;;;5.63;;
1082;SDS011;530;51.448;7.238;2023-01-24T07:58:29;9.60;;;6.90;;
1082;SDS011;530;51.448;7.238;2023-01-24T08:00:55;9.00;;;6.00;;
1082;SDS011;530;51.448;7.238;2023-01-24T08:03:22;8.80;;;6.50;;
1082;SDS011;530;51.448;7.238;2023-01-24T08:05:47;7.33;;;5.83;;
1082;SDS011;530;51.448;7.238;2023-01-24T08:08:13;7.07;;;6.23;;
1082;SDS011;530;51.448;7.238;2023-01-24T08:10:38;7.57;;;6.73;;
1082;SDS011;530;51.448;7.238;2023-01-24T08:13:04;8.60;;;6.60;;
1082;SDS011;530;51.448;7.238;2023-01-24T08:15:30;7.80;;;6.30;;
1082;SDS011;530;51.448;7.238;2023-01-24T08:17:55;8.00;;;6.50;;
1082;SDS011;530;51.448;7.238;2023-01-24T08:20:21;8.87;;;7.20;;
1082;SDS011;530;51.448;7.238;2023-01-24T08:22:47;8.60;;;7.10;;
1082;SDS011;530;51.448;7.238;2023-01-24T08:25:12;8.90;;;6.43;;
1082;SDS011;530;51.448;7.238;2023-01-24T08:27:41;6.23;;;5.20;;
1082;SDS011;530;51.448;7.238;2023-01-24T08:30:08;7.47;;;6.40;;
1082;SDS011;530;51.448;7.238;2023-01-24T08:32:36;8.50;;;6.70;;
1082;SDS011;530;51.448;7.238;2023-01-24T08:35:02;7.47;;;6.27;;
1082;SDS011;530;51.448;7.238;2023-01-24T08:37:28;7.73;;;6.20;;
1082;SDS011;530;51.448;7.238;2023-01-24T08:39:54;8.70;;;7.00;;
1082;SDS011;530;51.448;7.238;2023-01-24T08:42:22;9.30;;;7.60;;
1082;SDS011;530;51.448;7.238;2023-01-24T08:44:48;9.37;;;7.17;;
1082;SDS011;530;51.448;7.238;2023-01-24T08:47:14;8.37;;;6.73;;
1082;SDS011;530;51.448;7.238;2023-01-24T08:49:40;8.17;;;6.53;;
1082;SDS011;530;51.448;7.238;2023-01-24T08:52:06;10.47;;;6.73;;
1082;SDS011;530;51.448;7.238;2023-01-24T08:54:32;8.13;;;6.93;;
1082;SDS011;530;51.448;7.238;2023-01-24T08:57:00;7.97;;;7.17;;
1082;SDS011;530;51.448;7.238;2023-01-24T08:59:25;8.90;;;7.60;;
1082;SDS011;530;51.448;7.238;2023-01-24T09:01:51;9.77;;;7.47;;
1082;SDS011;530;51.448;7.238;2023-01-24T09:04:17;9.17;;;6.87;;
1082;SDS011;530;51.448;7.238;2023-01-24T09:06:42;7.80;;;6.77;;
1082;SDS011;530;51.448;7.238;2023-01-24T09:09:08;8.27;;;6.80;;
1082;SDS011;530;51.448;7.238;2023-01-24T09:11:34;9.10;;;7.30;;
1082;SDS011;530;51.448;7.238;2023-01-24T09:14:00;10.03;;;7.77;;
1082;SDS011;530;51.448;7.238;2023-01-24T09:16:25;7.93;;;7.10;;
1082;SDS011;530;51.448;7.238;2023-01-24T09:18:52;7.87;;;6.17;;
1082;SDS011;530;51.448;7.238;2023-01-24T09:21:19;7.67;;;6.40;;
1082;SDS011;530;51.448;7.238;2023-01-24T09:23:45;8.00;;;7.10;;
1082;SDS011;530;51.448;7.238;2023-01-24T09:26:11;7.43;;;6.40;;
1082;SDS011;530;51.448;7.238;2023-01-24T09:28:37;9.17;;;7.23;;
1082;SDS011;530;51.448;7.238;2023-01-24T09:31:02;9.43;;;7.27;;
1082;SDS011;530;51.448;7.238;2023-01-24T09:33:28;9.50;;;8.40;;
1082;SDS011;530;51.448;7.238;2023-01-24T09:35:56;7.70;;;6.43;;
1082;SDS011;530;51.448;7.238;2023-01-24T09:38:26;8.80;;;7.47;;
1082;SDS011;530;51.448;7.238;2023-01-24T09:43:40;9.80;;;7.50;;
1082;SDS011;530;51.448;7.238;2023-01-24T09:48:45;10.00;;;7.03;;
1082;SDS011;530;51.448;7.238;2023-01-24T09:51:13;8.20;;;6.77;;
1082;SDS011;530;51.448;7.238;2023-01-24T09:53:45;9.07;;;7.63;;
1082;SDS011;530;51.448;7.238;2023-01-24T09:56:23;10.50;;;8.00;;
1082;SDS011;530;51.448;7.238;2023-01-24T09:59:39;10.50;;;8.10;;
1082;SDS011;530;51.448;7.238;2023-01-24T10:01:59;8.57;;;7.00;;
1082;SDS011;530;51.448;7.238;2023-01-24T10:04:35;10.73;;;8.10;;
1082;SDS011;530;51.448;7.238;2023-01-24T10:09:54;9.10;;;7.40;;
1082;SDS011;530;51.448;7.238;2023-01-24T10:18:15;10.27;;;7.37;;
1082;SDS011;530;51.448;7.238;2023-01-24T10:23:28;11.67;;;9.47;;
1082;SDS011;530;51.448;7.238;2023-01-24T10:28:45;10.33;;;8.53;;
1082;SDS011;530;51.448;7.238;2023-01-24T10:31:16;10.93;;;8.77;;
1082;SDS011;530;51.448;7.238;2023-01-24T10:33:47;13.13;;;9.00;;
1082;SDS011;530;51.448;7.238;2023-01-24T10:36:36;10.73;;;8.60;;
1082;SDS011;530;51.448;7.238;2023-01-24T10:39:10;9.10;;;7.87;;
1082;SDS011;530;51.448;7.238;2023-01-24T10:41:36;11.83;;;9.10;;
1082;SDS011;530;51.448;7.238;2023-01-24T10:44:04;13.10;;;9.57;;
1082;SDS011;530;51.448;7.238;2023-01-24T10:49:31;10.37;;;8.17;;
1082;SDS011;530;51.448;7.238;2023-01-24T10:52:19;12.90;;;8.90;;
1082;SDS011;530;51.448;7.238;2023-01-24T11:03:02;10.37;;;8.70;;
1082;SDS011;530;51.448;7.238;2023-01-24T11:05:38;10.33;;;8.53;;
1082;SDS011;530;51.448;7.238;2023-01-24T11:08:14;10.23;;;8.77;;
1082;SDS011;530;51.448;7.238;2023-01-24T11:10:55;10.23;;;8.87;;
1082;SDS011;530;51.448;7.238;2023-01-24T11:13:24;12.00;;;9.43;;
1082;SDS011;530;51.448;7.238;2023-01-24T11:18:46;12.97;;;9.27;;
1082;SDS011;530;51.448;7.238;2023-01-24T11:21:25;11.43;;;10.17;;
1082;SDS011;530;51.448;7.238;2023-01-24T11:23:58;10.33;;;8.60;;
1082;SDS011;530;51.448;7.238;2023-01-24T11:26:29;10.00;;;8.83;;
1082;SDS011;530;51.448;7.238;2023-01-24T11:29:03;11.57;;;10.07;;
1082;SDS011;530;51.448;7.238;2023-01-24T11:31:57;12.00;;;9.70;;
1082;SDS011;530;51.448;7.238;2023-01-24T11:34:43;11.23;;;9.00;;
1082;SDS011;530;51.448;7.238;2023-01-24T11:45:45;12.03;;;9.47;;
1082;SDS011;530;51.448;7.238;2023-01-24T11:51:29;10.77;;;8.80;;
1082;SDS011;530;51.448;7.238;2023-01-24T11:59:20;12.00;;;9.60;;
1082;SDS011;530;51.448;7.238;2023-01-24T12:10:38;10.47;;;9.10;;
1082;SDS011;530;51.448;7.238;2023-01-24T12:21:21;10.50;;;8.80;;
1082;SDS011;530;51.448;7.238;2023-01-24T12:23:52;10.23;;;8.70;;
1082;SDS011;530;51.448;7.238;2023-01-24T12:26:27;10.40;;;9.20;;
1082;SDS011;530;51.448;7.238;2023-01-24T12:29:05;10.90;;;9.27;;
1082;SDS011;530;51.448;7.238;2023-01-24T12:37:04;10.50;;;9.30;;
1082;SDS011;530;51.448;7.238;2023-01-24T12:39:41;11.17;;;9.27;;
1082;SDS011;530;51.448;7.238;2023-01-24T12:42:17;12.33;;;9.40;;
1082;SDS011;530;51.448;7.238;2023-01-24T12:44:55;11.83;;;9.27;;
1082;SDS011;530;51.448;7.238;2023-01-24T12:47:39;10.13;;;9.00;;
1082;SDS011;530;51.448;7.238;2023-01-24T12:52:53;10.57;;;8.43;;
1082;SDS011;530;51.448;7.238;2023-01-24T12:55:52;10.90;;;8.80;;
1082;SDS011;530;51.448;7.238;2023-01-24T13:06:53;11.67;;;8.57;;
1082;SDS011;530;51.448;7.238;2023-01-24T13:09:36;11.07;;;9.03;;
1082;SDS011;530;51.448;7.238;2023-01-24T13:12:16;10.60;;;8.67;;
1082;SDS011;530;51.448;7.238;2023-01-24T13:32:13;9.23;;;8.30;;
1082;SDS011;530;51.448;7.238;2023-01-24T13:34:45;9.73;;;8.43;;
1082;SDS011;530;51.448;7.238;2023-01-24T13:37:15;14.23;;;8.87;;
1082;SDS011;530;51.448;7.238;2023-01-24T13:39:43;10.07;;;8.43;;
1082;SDS011;530;51.448;7.238;2023-01-24T13:44:37;9.40;;;8.00;;
1082;SDS011;530;51.448;7.238;2023-01-24T13:47:25;10.07;;;8.00;;
1082;SDS011;530;51.448;7.238;2023-01-24T13:55:01;9.43;;;7.90;;
1082;SDS011;530;51.448;7.238;2023-01-24T13:57:42;11.20;;;8.37;;
1082;SDS011;530;51.448;7.238;2023-01-24T14:07:53;8.70;;;7.80;;
1082;SDS011;530;51.448;7.238;2023-01-24T14:10:44;10.90;;;9.60;;
1082;SDS011;530;51.448;7.238;2023-01-24T14:16:12;10.07;;;8.10;;
1082;SDS011;530;51.448;7.238;2023-01-24T14:18:48;10.57;;;9.03;;
1082;SDS011;530;51.448;7.238;2023-01-24T14:21:17;9.13;;;8.00;;
1082;SDS011;530;51.448;7.238;2023-01-24T14:23:55;11.13;;;8.80;;
1082;SDS011;530;51.448;7.238;2023-01-24T14:26:26;10.43;;;8.80;;
1082;SDS011;530;51.448;7.238;2023-01-24T14:28:55;9.70;;;8.70;;
1082;SDS011;530;51.448;7.238;2023-01-24T14:36:40;10.80;;;8.90;;
1082;SDS011;530;51.448;7.238;2023-01-24T14:41:51;10.50;;;8.50;;
1082;SDS011;530;51.448;7.238;2023-01-24T14:44:29;9.13;;;8.17;;
1082;SDS011;530;51.448;7.238;2023-01-24T14:49:51;9.30;;;7.77;;
1082;SDS011;530;51.448;7.238;2023-01-24T14:52:27;12.93;;;8.53;;
1082;SDS011;530;51.448;7.238;2023-01-24T14:58:19;11.07;;;9.10;;
1082;SDS011;530;51.448;7.238;2023-01-24T15:00:48;8.60;;;7.70;;
1082;SDS011;530;51.448;7.238;2023-01-24T15:03:19;9.10;;;8.13;;
1082;SDS011;530;51.448;7.238;2023-01-24T15:05:51;11.63;;;8.67;;
1082;SDS011;530;51.448;7.238;2023-01-24T15:08:28;9.27;;;7.73;;
1082;SDS011;530;51.448;7.238;2023-01-24T15:11:04;9.97;;;8.80;;
1082;SDS011;530;51.448;7.238;2023-01-24T15:13:40;9.90;;;8.77;;
1082;SDS011;530;51.448;7.238;2023-01-24T15:16:15;9.60;;;8.20;;
1082;SDS011;530;51.448;7.238;2023-01-24T15:18:50;9.37;;;8.13;;
1082;SDS011;530;51.448;7.238;2023-01-24T15:23:52;8.50;;;7.67;;
1082;SDS011;530;51.448;7.238;2023-01-24T15:26:20;9.03;;;8.03;;
1082;SDS011;530;51.448;7.238;2023-01-24T15:32:18;8.87;;;8.03;;
1082;SDS011;530;51.448;7.238;2023-01-24T15:37:42;10.30;;;8.20;;
1082;SDS011;530;51.448;7.238;2023-01-24T15:40:18;9.93;;;8.47;;
1082;SDS011;530;51.448;7.238;2023-01-24T15:42:47;9.37;;;8.30;;
1082;SDS011;530;51.448;7.238;2023-01-24T15:45:35;9.13;;;8.20;;
1082;SDS011;530;51.448;7.238;2023-01-24T15:48:10;9.67;;;8.53;;
1082;SDS011;530;51.448;7.238;2023-01-24T15:50:36;11.17;;;8.80;;
1082;SDS011;530;51.448;7.238;2023-01-24T15:53:31;9.80;;;8.80;;
1082;SDS011;530;51.448;7.238;2023-01-24T15:56:20;9.90;;;8.90;;
1082;SDS011;530;51.448;7.238;2023-01-24T15:58:47;10.93;;;8.70;;
1082;SDS011;530;51.448;7.238;2023-01-24T16:01:14;11.20;;;9.40;;
1082;SDS011;530;51.448;7.238;2023-01-24T16:03:40;14.07;;;9.77;;
1082;SDS011;530;51.448;7.238;2023-01-24T16:06:05;9.10;;;7.67;;
1082;SDS011;530;51.448;7.238;2023-01-24T16:08:31;11.00;;;9.13;;
1082;SDS011;530;51.448;7.238;2023-01-24T16:10:57;10.60;;;8.33;;
1082;SDS011;530;51.448;7.238;2023-01-24T16:13:28;11.30;;;9.40;;
1082;SDS011;530;51.448;7.238;2023-01-24T16:16:01;10.33;;;9.20;;
1082;SDS011;530;51.448;7.238;2023-01-24T16:18:29;11.13;;;9.30;;
1082;SDS011;530;51.448;7.238;2023-01-24T16:20:56;9.60;;;8.60;;
1082;SDS011;530;51.448;7.238;2023-01-24T16:23:22;9.97;;;8.80;;
1082;SDS011;530;51.448;7.238;2023-01-24T16:25:49;10.37;;;8.90;;
1082;SDS011;530;51.448;7.238;2023-01-24T16:28:20;10.80;;;9.70;;
1082;SDS011;530;51.448;7.238;2023-01-24T16:30:50;9.90;;;8.90;;
1082;SDS011;530;51.448;7.238;2023-01-24T16:33:18;12.87;;;11.47;;
1082;SDS011;530;51.448;7.238;2023-01-24T16:35:45;11.80;;;9.30;;
1082;SDS011;530;51.448;7.238;2023-01-24T16:38:13;10.03;;;9.03;;
1082;SDS011;530;51.448;7.238;2023-01-24T16:40:39;9.90;;;8.90;;
1082;SDS011;530;51.448;7.238;2023-01-24T16:43:06;11.20;;;10.03;;
1082;SDS011;530;51.448;7.238;2023-01-24T16:45:32;10.30;;;9.13;;
1082;SDS011;530;51.448;7.238;2023-01-24T16:47:58;11.17;;;10.07;;
1082;SDS011;530;51.448;7.238;2023-01-24T16:50:24;10.93;;;9.83;;
1082;SDS011;530;51.448;7.238;2023-01-24T16:52:51;11.37;;;10.17;;
1082;SDS011;530;51.448;7.238;2023-01-24T16:55:17;12.00;;;10.47;;
1082;SDS011;530;51.448;7.238;2023-01-24T16:57:43;12.63;;;11.10;;
1082;SDS011;530;51.448;7.238;2023-01-24T17:00:10;12.63;;;11.33;;
1082;SDS011;530;51.448;7.238;2023-01-24T17:02:40;12.40;;;10.87;;
1082;SDS011;530;51.448;7.238;2023-01-24T17:05:08;11.20;;;10.10;;
1082;SDS011;530;51.448;7.238;2023-01-24T17:07:34;11.67;;;10.47;;
1082;SDS011;530;51.448;7.238;2023-01-24T17:10:00;11.50;;;10.30;;
1082;SDS011;530;51.448;7.238;2023-01-24T17:12:28;11.70;;;10.50;;
1082;SDS011;530;51.448;7.238;2023-01-24T17:14:54;11.87;;;10.63;;
1082;SDS011;530;51.448;7.238;2023-01-24T17:17:19;11.43;;;10.23;;
1082;SDS011;530;51.448;7.238;2023-01-24T17:19:45;11.50;;;10.37;;
1082;SDS011;530;51.448;7.238;2023-01-24T17:22:11;11.37;;;10.17;;
1082;SDS011;530;51.448;7.238;2023-01-24T17:24:36;13.23;;;10.77;;
1082;SDS011;530;51.448;7.238;2023-01-24T17:27:02;12.40;;;11.03;;
1082;SDS011;530;51.448;7.238;2023-01-24T17:29:28;13.33;;;11.97;;
1082;SDS011;530;51.448;7.238;2023-01-24T17:31:54;14.07;;;12.00;;
1082;SDS011;530;51.448;7.238;2023-01-24T17:34:20;12.90;;;11.10;;
1082;SDS011;530;51.448;7.238;2023-01-24T17:36:46;12.80;;;11.40;;
1082;SDS011;530;51.448;7.238;2023-01-24T17:39:12;13.80;;;12.33;;
1082;SDS011;530;51.448;7.238;2023-01-24T17:41:39;13.67;;;11.70;;
1082;SDS011;530;51.448;7.238;2023-01-24T17:44:05;15.23;;;11.97;;
1082;SDS011;530;51.448;7.238;2023-01-24T17:46:31;14.70;;;13.03;;
1082;SDS011;530;51.448;7.238;2023-01-24T17:48:56;13.27;;;11.70;;
1082;SDS011;530;51.448;7.238;2023-01-24T17:51:22;16.20;;;12.83;;
1082;SDS011;530;51.448;7.238;2023-01-24T17:53:48;13.87;;;10.70;;
1082;SDS011;530;51.448;7.238;2023-01-24T17:56:14;12.43;;;11.10;;
1082;SDS011;530;51.448;7.238;2023-01-24T17:58:41;12.50;;;10.87;;
1082;SDS011;530;51.448;7.238;2023-01-24T18:01:07;14.77;;;12.50;;
1082;SDS011;530;51.448;7.238;2023-01-24T18:03:33;12.40;;;11.03;;
1082;SDS011;530;51.448;7.238;2023-01-24T18:06:03;13.27;;;11.73;;
1082;SDS011;530;51.448;7.238;2023-01-24T18:08:30;13.80;;;12.37;;
1082;SDS011;530;51.448;7.238;2023-01-24T18:10:56;14.70;;;13.03;;